Cosco Nagoya — 3ESJ8 — position and weather

sailwx.info

Track history (hours):
 
Tides and Currents Weather Stations Pressure Air Temp Water Temp Dewpoint Dewpoint Depression Visibility Wind Speed Wind Dir Waves Ship Positions

Cosco Nagoya

Last reported at 2015-Mar-03 04:33 UTC. Time now 2015-Mar-03 04:45 UTC.
Position N 51°21' E 003°52'.

Length 260 m; draft 12.8 m.

Type: Cargo ship. MMSI: 370320000.

Date/timePositionNaut miles runAvg speedWind from/ knotsBaromVisibWave heightAir tempDewpointWater temp
2015-Mar-03 04:33N 51°21' E 003°52'1110.8
2015-Mar-03 03:33N 51°26' E 003°37'1111.2
2015-Mar-03 02:34N 51°24' E 003°19'1211.5
2015-Mar-03 01:34N 51°29' E 003°02'1514.8
2015-Mar-03 00:33N 51°42' E 003°13'9 8.8
2015-Mar-02 23:33N 51°51' E 003°17'1313.1
2015-Mar-02 22:33N 52°03' E 003°25'1514.6
2015-Mar-02 21:33N 52°03' E 003°49'1110.6
2015-Mar-02 20:33N 51°59' E 004°04'2 2.4
2015-Mar-02 19:33N 51°57' E 004°03'0 0.0
2015-Mar-02 18:34N 51°57' E 004°03'0 0.0
2015-Mar-02 17:34N 51°57' E 004°03'0 0.0
2015-Mar-02 16:33N 51°57' E 004°03'0 0.0
2015-Mar-02 15:33N 51°57' E 004°03'0 0.0
2015-Mar-02 14:33N 51°57' E 004°03'0 0.0
2015-Mar-02 13:33N 51°57' E 004°03'0 0.0
2015-Mar-02 12:34N 51°57' E 004°03'0 0.0
2015-Mar-02 11:34N 51°57' E 004°03'0 0.0
2015-Mar-02 10:34N 51°57' E 004°03'0 0.0
2015-Mar-02 09:34N 51°57' E 004°03'0 0.0
2015-Mar-02 08:34N 51°57' E 004°03'0 0.0
2015-Mar-02 07:34N 51°57' E 004°03'0 0.0
2015-Mar-02 06:34N 51°57' E 004°03'0 0.0
2015-Mar-02 05:33N 51°57' E 004°03'0 0.0
2015-Mar-02 04:34N 51°57' E 004°03'0 0.0
2015-Mar-02 03:34N 51°57' E 004°03'0 0.0
2015-Mar-02 02:34N 51°57' E 004°03'0 0.0
2015-Mar-02 01:34N 51°57' E 004°03'0 0.0
2015-Mar-02 00:34N 51°57' E 004°03'0 0.0
2015-Mar-01 23:34N 51°57' E 004°03'0 0.0
2015-Mar-01 22:34N 51°57' E 004°03'0 0.0
2015-Mar-01 21:34N 51°57' E 004°03'0 0.0
2015-Mar-01 20:34N 51°57' E 004°03'0 0.0
2015-Mar-01 19:34N 51°57' E 004°03'0 0.0
2015-Mar-01 18:34N 51°57' E 004°03'0 0.0
2015-Mar-01 17:33N 51°57' E 004°03'0 0.0
2015-Mar-01 16:34N 51°57' E 004°03'0 0.0
2015-Mar-01 15:34N 51°57' E 004°03'0 0.0
2015-Mar-01 14:34N 51°57' E 004°03'0 0.0
2015-Mar-01 13:33N 51°57' E 004°03'0 0.0
2015-Mar-01 12:33N 51°57' E 004°03'0 0.0
2015-Mar-01 11:34N 51°57' E 004°03'0 0.0
2015-Mar-01 10:34N 51°57' E 004°03'0 0.0
2015-Mar-01 09:34N 51°57' E 004°03'1 0.7
2015-Mar-01 08:34N 51°57' E 004°04'5 4.6
2015-Mar-01 07:34N 51°60' E 003°58'8 8.4
2015-Mar-01 06:34N 51°59' E 003°45'4 4.2
2015-Mar-01 05:33N 51°57' E 003°39'5 5.2
2015-Mar-01 04:34N 51°55' E 003°30'8 7.5
2015-Mar-01 03:34N 51°54' E 003°18'2812.2
2015-Mar-01 01:13N 51°45' E 002°35'913.2
2015-Mar-01 00:33N 51°39' E 002°25'1313.2
2015-Feb-28 23:34N 51°29' E 002°11'1313.1
2015-Feb-28 22:34N 51°19' E 001°57'1413.8
2015-Feb-28 21:34N 51°09' E 001°43'1413.9
2015-Feb-28 20:33N 50°57' E 001°30'1514.8
2015-Feb-28 19:32N 50°43' E 001°23'2814.1
2015-Feb-28 17:32N 50°29' E 000°44'29717.4
2015-Feb-28 00:24N 49°40' W 006°53'1518.0
2015-Feb-27 23:33N 49°35' W 007°16'  
Track history (hours):
 
Tides and Currents Weather Stations Pressure Air Temp Water Temp Dewpoint Dewpoint Depression Visibility Wind Speed Wind Dir Waves Ship Positions

Cosco Nagoya

Last reported at 2015-Mar-03 04:33 UTC. Time now 2015-Mar-03 04:45 UTC.
Position N 51°21' E 003°52'.

Length 260 m; draft 12.8 m.

Type: Cargo ship. MMSI: 370320000.

Date/timePositionNaut miles runAvg speedWind from/ knotsBaromVisibWave heightAir tempDewpointWater temp
2015-Mar-03 04:33N 51°21' E 003°52'1110.8
2015-Mar-03 03:33N 51°26' E 003°37'1111.2
2015-Mar-03 02:34N 51°24' E 003°19'1211.5
2015-Mar-03 01:34N 51°29' E 003°02'1514.8
2015-Mar-03 00:33N 51°42' E 003°13'9 8.8
2015-Mar-02 23:33N 51°51' E 003°17'1313.1
2015-Mar-02 22:33N 52°03' E 003°25'1514.6
2015-Mar-02 21:33N 52°03' E 003°49'1110.6
2015-Mar-02 20:33N 51°59' E 004°04'2 2.4
2015-Mar-02 19:33N 51°57' E 004°03'0 0.0
2015-Mar-02 18:34N 51°57' E 004°03'0 0.0
2015-Mar-02 17:34N 51°57' E 004°03'0 0.0
2015-Mar-02 16:33N 51°57' E 004°03'0 0.0
2015-Mar-02 15:33N 51°57' E 004°03'0 0.0
2015-Mar-02 14:33N 51°57' E 004°03'0 0.0
2015-Mar-02 13:33N 51°57' E 004°03'0 0.0
2015-Mar-02 12:34N 51°57' E 004°03'0 0.0
2015-Mar-02 11:34N 51°57' E 004°03'0 0.0
2015-Mar-02 10:34N 51°57' E 004°03'0 0.0
2015-Mar-02 09:34N 51°57' E 004°03'0 0.0
2015-Mar-02 08:34N 51°57' E 004°03'0 0.0
2015-Mar-02 07:34N 51°57' E 004°03'0 0.0
2015-Mar-02 06:34N 51°57' E 004°03'0 0.0
2015-Mar-02 05:33N 51°57' E 004°03'0 0.0
2015-Mar-02 04:34N 51°57' E 004°03'0 0.0
2015-Mar-02 03:34N 51°57' E 004°03'0 0.0
2015-Mar-02 02:34N 51°57' E 004°03'0 0.0
2015-Mar-02 01:34N 51°57' E 004°03'0 0.0
2015-Mar-02 00:34N 51°57' E 004°03'0 0.0
2015-Mar-01 23:34N 51°57' E 004°03'0 0.0
2015-Mar-01 22:34N 51°57' E 004°03'0 0.0
2015-Mar-01 21:34N 51°57' E 004°03'0 0.0
2015-Mar-01 20:34N 51°57' E 004°03'0 0.0
2015-Mar-01 19:34N 51°57' E 004°03'0 0.0
2015-Mar-01 18:34N 51°57' E 004°03'0 0.0
2015-Mar-01 17:33N 51°57' E 004°03'0 0.0
2015-Mar-01 16:34N 51°57' E 004°03'0 0.0
2015-Mar-01 15:34N 51°57' E 004°03'0 0.0
2015-Mar-01 14:34N 51°57' E 004°03'0 0.0
2015-Mar-01 13:33N 51°57' E 004°03'0 0.0
2015-Mar-01 12:33N 51°57' E 004°03'0 0.0
2015-Mar-01 11:34N 51°57' E 004°03'0 0.0
2015-Mar-01 10:34N 51°57' E 004°03'0 0.0
2015-Mar-01 09:34N 51°57' E 004°03'1 0.7
2015-Mar-01 08:34N 51°57' E 004°04'5 4.6
2015-Mar-01 07:34N 51°60' E 003°58'8 8.4
2015-Mar-01 06:34N 51°59' E 003°45'4 4.2
2015-Mar-01 05:33N 51°57' E 003°39'5 5.2
2015-Mar-01 04:34N 51°55' E 003°30'8 7.5
2015-Mar-01 03:34N 51°54' E 003°18'2812.2
2015-Mar-01 01:13N 51°45' E 002°35'913.2
2015-Mar-01 00:33N 51°39' E 002°25'1313.2
2015-Feb-28 23:34N 51°29' E 002°11'1313.1
2015-Feb-28 22:34N 51°19' E 001°57'1413.8
2015-Feb-28 21:34N 51°09' E 001°43'1413.9
2015-Feb-28 20:33N 50°57' E 001°30'1514.8
2015-Feb-28 19:32N 50°43' E 001°23'2814.1
2015-Feb-28 17:32N 50°29' E 000°44'29717.4
2015-Feb-28 00:24N 49°40' W 006°53'1518.0
2015-Feb-27 23:33N 49°35' W 007°16'  

Dump ship's entire track history